sensor_id;sensor_type;location;lat;lon;timestamp;P1;durP1;ratioP1;P2;durP2;ratioP2
10481;SDS011;5288;42.334;23.876;2023-04-24T00:02:24;8.07;;;7.27;;
10481;SDS011;5288;42.334;23.876;2023-04-24T00:04:53;8.47;;;7.30;;
10481;SDS011;5288;42.334;23.876;2023-04-24T00:07:20;10.70;;;7.37;;
10481;SDS011;5288;42.334;23.876;2023-04-24T00:09:47;8.63;;;7.73;;
10481;SDS011;5288;42.334;23.876;2023-04-24T00:12:14;8.07;;;7.27;;
10481;SDS011;5288;42.334;23.876;2023-04-24T00:14:41;9.80;;;7.70;;
10481;SDS011;5288;42.334;23.876;2023-04-24T00:17:08;9.97;;;7.13;;
10481;SDS011;5288;42.334;23.876;2023-04-24T00:19:35;10.23;;;7.60;;
10481;SDS011;5288;42.334;23.876;2023-04-24T00:22:03;8.90;;;7.67;;
10481;SDS011;5288;42.334;23.876;2023-04-24T00:24:31;10.87;;;9.40;;
10481;SDS011;5288;42.334;23.876;2023-04-24T00:26:57;11.50;;;8.07;;
10481;SDS011;5288;42.334;23.876;2023-04-24T00:29:26;12.10;;;8.37;;
10481;SDS011;5288;42.334;23.876;2023-04-24T00:31:53;9.37;;;8.20;;
10481;SDS011;5288;42.334;23.876;2023-04-24T00:34:20;8.03;;;6.87;;
10481;SDS011;5288;42.334;23.876;2023-04-24T00:36:47;8.60;;;6.60;;
10481;SDS011;5288;42.334;23.876;2023-04-24T00:39:18;7.97;;;6.93;;
10481;SDS011;5288;42.334;23.876;2023-04-24T00:41:45;6.93;;;5.93;;
10481;SDS011;5288;42.334;23.876;2023-04-24T00:44:13;9.03;;;6.43;;
10481;SDS011;5288;42.334;23.876;2023-04-24T00:46:40;8.70;;;6.63;;
10481;SDS011;5288;42.334;23.876;2023-04-24T00:49:08;9.63;;;7.13;;
10481;SDS011;5288;42.334;23.876;2023-04-24T00:51:35;9.63;;;6.70;;
10481;SDS011;5288;42.334;23.876;2023-04-24T00:54:02;10.47;;;7.17;;
10481;SDS011;5288;42.334;23.876;2023-04-24T00:56:30;9.30;;;6.80;;
10481;SDS011;5288;42.334;23.876;2023-04-24T00:58:57;8.83;;;7.47;;
10481;SDS011;5288;42.334;23.876;2023-04-24T01:01:25;8.67;;;7.77;;
10481;SDS011;5288;42.334;23.876;2023-04-24T01:03:52;8.47;;;7.57;;
10481;SDS011;5288;42.334;23.876;2023-04-24T01:06:19;9.27;;;7.73;;
10481;SDS011;5288;42.334;23.876;2023-04-24T01:08:48;8.90;;;8.00;;
10481;SDS011;5288;42.334;23.876;2023-04-24T01:11:15;7.60;;;6.80;;
10481;SDS011;5288;42.334;23.876;2023-04-24T01:13:44;8.27;;;6.93;;
10481;SDS011;5288;42.334;23.876;2023-04-24T01:16:12;9.10;;;6.40;;
10481;SDS011;5288;42.334;23.876;2023-04-24T01:18:39;6.50;;;5.87;;
10481;SDS011;5288;42.334;23.876;2023-04-24T01:21:06;9.10;;;7.90;;
10481;SDS011;5288;42.334;23.876;2023-04-24T01:23:36;8.10;;;6.97;;
10481;SDS011;5288;42.334;23.876;2023-04-24T01:26:03;9.53;;;7.20;;
10481;SDS011;5288;42.334;23.876;2023-04-24T01:28:30;10.73;;;8.10;;
10481;SDS011;5288;42.334;23.876;2023-04-24T01:30:57;8.87;;;7.77;;
10481;SDS011;5288;42.334;23.876;2023-04-24T01:33:25;14.50;;;8.23;;
10481;SDS011;5288;42.334;23.876;2023-04-24T01:35:52;10.17;;;9.10;;
10481;SDS011;5288;42.334;23.876;2023-04-24T01:38:20;11.33;;;8.30;;
10481;SDS011;5288;42.334;23.876;2023-04-24T01:40:48;8.67;;;7.27;;
10481;SDS011;5288;42.334;23.876;2023-04-24T01:43:16;9.37;;;8.43;;
10481;SDS011;5288;42.334;23.876;2023-04-24T01:45:43;7.70;;;7.00;;
10481;SDS011;5288;42.334;23.876;2023-04-24T01:48:11;10.33;;;7.83;;
10481;SDS011;5288;42.334;23.876;2023-04-24T01:50:39;9.30;;;8.03;;
10481;SDS011;5288;42.334;23.876;2023-04-24T01:53:07;8.00;;;7.10;;
10481;SDS011;5288;42.334;23.876;2023-04-24T01:55:34;8.90;;;8.00;;
10481;SDS011;5288;42.334;23.876;2023-04-24T01:58:02;12.33;;;7.57;;
10481;SDS011;5288;42.334;23.876;2023-04-24T02:00:29;8.17;;;7.37;;
10481;SDS011;5288;42.334;23.876;2023-04-24T02:02:56;10.40;;;7.57;;
10481;SDS011;5288;42.334;23.876;2023-04-24T02:05:23;10.07;;;8.03;;
10481;SDS011;5288;42.334;23.876;2023-04-24T02:07:50;9.97;;;8.80;;
10481;SDS011;5288;42.334;23.876;2023-04-24T02:10:17;8.37;;;7.57;;
10481;SDS011;5288;42.334;23.876;2023-04-24T02:12:44;10.70;;;9.40;;
10481;SDS011;5288;42.334;23.876;2023-04-24T02:15:12;8.87;;;7.23;;
10481;SDS011;5288;42.334;23.876;2023-04-24T02:17:40;16.07;;;7.10;;
10481;SDS011;5288;42.334;23.876;2023-04-24T02:20:07;8.40;;;7.37;;
10481;SDS011;5288;42.334;23.876;2023-04-24T02:22:34;8.63;;;7.57;;
10481;SDS011;5288;42.334;23.876;2023-04-24T02:25:01;11.50;;;9.23;;
10481;SDS011;5288;42.334;23.876;2023-04-24T02:27:28;11.30;;;7.20;;
10481;SDS011;5288;42.334;23.876;2023-04-24T02:29:55;7.97;;;6.67;;
10481;SDS011;5288;42.334;23.876;2023-04-24T02:32:23;7.57;;;6.90;;
10481;SDS011;5288;42.334;23.876;2023-04-24T02:34:50;8.50;;;6.60;;
10481;SDS011;5288;42.334;23.876;2023-04-24T02:37:17;8.30;;;6.23;;
10481;SDS011;5288;42.334;23.876;2023-04-24T02:39:44;12.73;;;8.30;;
10481;SDS011;5288;42.334;23.876;2023-04-24T02:42:11;9.90;;;7.93;;
10481;SDS011;5288;42.334;23.876;2023-04-24T02:44:38;9.33;;;7.07;;
10481;SDS011;5288;42.334;23.876;2023-04-24T02:47:06;7.27;;;6.33;;
10481;SDS011;5288;42.334;23.876;2023-04-24T02:49:35;8.27;;;6.87;;
10481;SDS011;5288;42.334;23.876;2023-04-24T02:52:02;11.77;;;7.47;;
10481;SDS011;5288;42.334;23.876;2023-04-24T02:54:29;7.93;;;7.13;;
10481;SDS011;5288;42.334;23.876;2023-04-24T02:56:55;9.43;;;7.53;;
10481;SDS011;5288;42.334;23.876;2023-04-24T02:59:23;9.30;;;7.10;;
10481;SDS011;5288;42.334;23.876;2023-04-24T03:01:50;20.13;;;13.27;;
10481;SDS011;5288;42.334;23.876;2023-04-24T03:04:16;15.20;;;10.07;;
10481;SDS011;5288;42.334;23.876;2023-04-24T03:06:46;12.23;;;8.17;;
10481;SDS011;5288;42.334;23.876;2023-04-24T03:09:13;11.20;;;9.17;;
10481;SDS011;5288;42.334;23.876;2023-04-24T03:11:40;10.50;;;8.20;;
10481;SDS011;5288;42.334;23.876;2023-04-24T03:14:07;13.43;;;8.27;;
10481;SDS011;5288;42.334;23.876;2023-04-24T03:16:34;11.67;;;8.83;;
10481;SDS011;5288;42.334;23.876;2023-04-24T03:19:01;46.60;;;29.10;;
10481;SDS011;5288;42.334;23.876;2023-04-24T03:21:28;29.37;;;14.73;;
10481;SDS011;5288;42.334;23.876;2023-04-24T03:23:57;9.53;;;8.57;;
10481;SDS011;5288;42.334;23.876;2023-04-24T03:26:23;10.87;;;9.47;;
10481;SDS011;5288;42.334;23.876;2023-04-24T03:28:51;13.10;;;9.10;;
10481;SDS011;5288;42.334;23.876;2023-04-24T03:31:18;9.73;;;8.53;;
10481;SDS011;5288;42.334;23.876;2023-04-24T03:33:46;12.57;;;8.80;;
10481;SDS011;5288;42.334;23.876;2023-04-24T03:36:13;11.30;;;8.80;;
10481;SDS011;5288;42.334;23.876;2023-04-24T03:38:40;17.13;;;11.30;;
10481;SDS011;5288;42.334;23.876;2023-04-24T03:41:08;13.10;;;9.63;;
10481;SDS011;5288;42.334;23.876;2023-04-24T03:43:35;13.30;;;8.07;;
10481;SDS011;5288;42.334;23.876;2023-04-24T03:46:02;13.33;;;7.60;;
10481;SDS011;5288;42.334;23.876;2023-04-24T03:48:30;10.30;;;7.93;;
10481;SDS011;5288;42.334;23.876;2023-04-24T03:50:57;8.13;;;6.80;;
10481;SDS011;5288;42.334;23.876;2023-04-24T03:53:23;9.63;;;7.10;;
10481;SDS011;5288;42.334;23.876;2023-04-24T03:55:51;13.93;;;8.03;;
10481;SDS011;5288;42.334;23.876;2023-04-24T03:58:20;10.97;;;8.40;;
10481;SDS011;5288;42.334;23.876;2023-04-24T04:00:47;9.73;;;7.20;;
10481;SDS011;5288;42.334;23.876;2023-04-24T04:03:14;14.30;;;7.53;;
10481;SDS011;5288;42.334;23.876;2023-04-24T04:05:41;11.67;;;7.80;;
10481;SDS011;5288;42.334;23.876;2023-04-24T04:08:08;11.57;;;7.53;;
10481;SDS011;5288;42.334;23.876;2023-04-24T04:10:35;12.70;;;8.10;;
10481;SDS011;5288;42.334;23.876;2023-04-24T04:13:02;10.27;;;7.30;;
10481;SDS011;5288;42.334;23.876;2023-04-24T04:15:30;7.77;;;6.93;;
10481;SDS011;5288;42.334;23.876;2023-04-24T04:17:57;10.03;;;6.93;;
10481;SDS011;5288;42.334;23.876;2023-04-24T04:20:24;8.90;;;8.00;;
10481;SDS011;5288;42.334;23.876;2023-04-24T04:22:52;10.07;;;7.13;;
10481;SDS011;5288;42.334;23.876;2023-04-24T04:25:19;8.83;;;7.17;;
10481;SDS011;5288;42.334;23.876;2023-04-24T04:27:45;9.87;;;7.63;;
10481;SDS011;5288;42.334;23.876;2023-04-24T04:30:13;9.17;;;8.27;;
10481;SDS011;5288;42.334;23.876;2023-04-24T04:32:42;8.67;;;7.77;;
10481;SDS011;5288;42.334;23.876;2023-04-24T04:35:09;9.63;;;8.00;;
10481;SDS011;5288;42.334;23.876;2023-04-24T04:37:36;9.03;;;7.57;;
10481;SDS011;5288;42.334;23.876;2023-04-24T04:40:03;12.93;;;8.10;;
10481;SDS011;5288;42.334;23.876;2023-04-24T04:42:32;12.23;;;8.80;;
10481;SDS011;5288;42.334;23.876;2023-04-24T04:45:00;9.73;;;8.20;;
10481;SDS011;5288;42.334;23.876;2023-04-24T04:47:27;9.53;;;8.43;;
10481;SDS011;5288;42.334;23.876;2023-04-24T04:49:59;10.10;;;8.10;;
10481;SDS011;5288;42.334;23.876;2023-04-24T04:52:26;8.47;;;7.57;;
10481;SDS011;5288;42.334;23.876;2023-04-24T04:54:53;10.50;;;9.33;;
10481;SDS011;5288;42.334;23.876;2023-04-24T04:57:20;9.83;;;8.93;;
10481;SDS011;5288;42.334;23.876;2023-04-24T04:59:46;11.47;;;8.83;;
10481;SDS011;5288;42.334;23.876;2023-04-24T05:02:13;14.37;;;8.50;;
10481;SDS011;5288;42.334;23.876;2023-04-24T05:04:40;9.53;;;8.60;;
10481;SDS011;5288;42.334;23.876;2023-04-24T05:07:09;9.73;;;8.73;;
10481;SDS011;5288;42.334;23.876;2023-04-24T05:09:36;8.03;;;7.23;;
10481;SDS011;5288;42.334;23.876;2023-04-24T05:12:03;9.53;;;7.73;;
10481;SDS011;5288;42.334;23.876;2023-04-24T05:14:30;10.50;;;9.00;;
10481;SDS011;5288;42.334;23.876;2023-04-24T05:16:57;8.87;;;7.97;;
10481;SDS011;5288;42.334;23.876;2023-04-24T05:19:25;11.00;;;8.27;;
10481;SDS011;5288;42.334;23.876;2023-04-24T05:21:52;8.53;;;7.53;;
10481;SDS011;5288;42.334;23.876;2023-04-24T05:24:20;10.50;;;7.90;;
10481;SDS011;5288;42.334;23.876;2023-04-24T05:26:47;9.63;;;8.73;;
10481;SDS011;5288;42.334;23.876;2023-04-24T05:29:14;9.13;;;7.67;;
10481;SDS011;5288;42.334;23.876;2023-04-24T05:31:41;10.40;;;8.97;;
10481;SDS011;5288;42.334;23.876;2023-04-24T05:34:08;9.97;;;8.47;;
10481;SDS011;5288;42.334;23.876;2023-04-24T05:36:35;9.00;;;8.10;;
10481;SDS011;5288;42.334;23.876;2023-04-24T05:39:02;10.77;;;8.10;;
10481;SDS011;5288;42.334;23.876;2023-04-24T05:41:31;8.63;;;7.73;;
10481;SDS011;5288;42.334;23.876;2023-04-24T05:43:58;10.43;;;7.60;;
10481;SDS011;5288;42.334;23.876;2023-04-24T05:46:25;8.37;;;7.10;;
10481;SDS011;5288;42.334;23.876;2023-04-24T05:48:52;8.50;;;7.43;;
10481;SDS011;5288;42.334;23.876;2023-04-24T05:51:19;8.53;;;7.63;;
10481;SDS011;5288;42.334;23.876;2023-04-24T05:53:46;10.37;;;7.67;;
10481;SDS011;5288;42.334;23.876;2023-04-24T05:56:12;11.37;;;8.63;;
10481;SDS011;5288;42.334;23.876;2023-04-24T05:58:41;8.17;;;7.37;;
10481;SDS011;5288;42.334;23.876;2023-04-24T06:01:08;8.00;;;6.80;;
10481;SDS011;5288;42.334;23.876;2023-04-24T06:03:35;9.47;;;7.27;;
10481;SDS011;5288;42.334;23.876;2023-04-24T06:06:03;7.40;;;6.70;;
10481;SDS011;5288;42.334;23.876;2023-04-24T06:08:30;10.47;;;7.53;;
10481;SDS011;5288;42.334;23.876;2023-04-24T06:10:57;9.67;;;6.43;;
10481;SDS011;5288;42.334;23.876;2023-04-24T06:13:24;7.63;;;6.30;;
10481;SDS011;5288;42.334;23.876;2023-04-24T06:15:53;6.73;;;6.13;;
10481;SDS011;5288;42.334;23.876;2023-04-24T06:18:20;6.50;;;5.80;;
10481;SDS011;5288;42.334;23.876;2023-04-24T06:20:47;9.13;;;6.70;;
10481;SDS011;5288;42.334;23.876;2023-04-24T06:23:14;9.50;;;6.77;;
10481;SDS011;5288;42.334;23.876;2023-04-24T06:25:41;7.60;;;6.10;;
10481;SDS011;5288;42.334;23.876;2023-04-24T06:28:09;7.00;;;6.40;;
10481;SDS011;5288;42.334;23.876;2023-04-24T06:30:36;7.53;;;6.50;;
10481;SDS011;5288;42.334;23.876;2023-04-24T06:33:04;8.37;;;6.70;;
10481;SDS011;5288;42.334;23.876;2023-04-24T06:35:31;7.93;;;7.13;;
10481;SDS011;5288;42.334;23.876;2023-04-24T06:37:58;8.07;;;6.47;;
10481;SDS011;5288;42.334;23.876;2023-04-24T06:40:25;8.37;;;6.37;;
10481;SDS011;5288;42.334;23.876;2023-04-24T06:42:52;6.67;;;6.07;;
10481;SDS011;5288;42.334;23.876;2023-04-24T06:45:19;7.50;;;6.03;;
10481;SDS011;5288;42.334;23.876;2023-04-24T06:47:46;7.00;;;6.23;;
10481;SDS011;5288;42.334;23.876;2023-04-24T06:50:14;9.03;;;5.93;;
10481;SDS011;5288;42.334;23.876;2023-04-24T07:22:55;31.73;;;14.43;;
10481;SDS011;5288;42.334;23.876;2023-04-24T07:25:22;15.30;;;6.10;;
10481;SDS011;5288;42.334;23.876;2023-04-24T07:27:49;8.57;;;5.90;;
10481;SDS011;5288;42.334;23.876;2023-04-24T07:30:16;14.80;;;6.43;;
10481;SDS011;5288;42.334;23.876;2023-04-24T07:32:43;8.07;;;5.80;;
10481;SDS011;5288;42.334;23.876;2023-04-24T07:35:10;10.67;;;5.93;;
10481;SDS011;5288;42.334;23.876;2023-04-24T07:37:37;10.03;;;5.50;;
10481;SDS011;5288;42.334;23.876;2023-04-24T07:40:06;6.53;;;5.03;;
10481;SDS011;5288;42.334;23.876;2023-04-24T07:42:34;8.37;;;5.70;;
10481;SDS011;5288;42.334;23.876;2023-04-24T07:45:01;7.87;;;5.10;;
10481;SDS011;5288;42.334;23.876;2023-04-24T07:47:28;9.90;;;5.53;;
10481;SDS011;5288;42.334;23.876;2023-04-24T07:49:55;9.90;;;5.50;;
10481;SDS011;5288;42.334;23.876;2023-04-24T07:52:23;8.33;;;5.33;;
10481;SDS011;5288;42.334;23.876;2023-04-24T07:54:50;6.87;;;4.83;;
10481;SDS011;5288;42.334;23.876;2023-04-24T07:57:24;7.27;;;5.10;;
10481;SDS011;5288;42.334;23.876;2023-04-24T07:59:51;8.03;;;5.37;;
10481;SDS011;5288;42.334;23.876;2023-04-24T08:02:18;7.87;;;5.40;;
10481;SDS011;5288;42.334;23.876;2023-04-24T08:04:46;7.33;;;4.90;;
10481;SDS011;5288;42.334;23.876;2023-04-24T08:07:13;5.83;;;4.50;;
10481;SDS011;5288;42.334;23.876;2023-04-24T08:09:41;5.87;;;4.60;;
10481;SDS011;5288;42.334;23.876;2023-04-24T08:12:08;7.43;;;4.97;;
10481;SDS011;5288;42.334;23.876;2023-04-24T08:14:36;9.70;;;5.00;;
10481;SDS011;5288;42.334;23.876;2023-04-24T08:17:03;4.90;;;4.00;;
10481;SDS011;5288;42.334;23.876;2023-04-24T08:19:30;5.87;;;4.27;;
10481;SDS011;5288;42.334;23.876;2023-04-24T08:21:57;11.47;;;5.37;;
10481;SDS011;5288;42.334;23.876;2023-04-24T08:24:24;6.67;;;3.90;;
10481;SDS011;5288;42.334;23.876;2023-04-24T08:26:51;8.80;;;4.87;;
10481;SDS011;5288;42.334;23.876;2023-04-24T08:29:21;7.27;;;4.53;;
10481;SDS011;5288;42.334;23.876;2023-04-24T08:31:50;6.03;;;5.10;;
10481;SDS011;5288;42.334;23.876;2023-04-24T08:34:19;4.50;;;4.10;;
10481;SDS011;5288;42.334;23.876;2023-04-24T08:36:46;5.20;;;3.87;;
10481;SDS011;5288;42.334;23.876;2023-04-24T08:39:13;7.07;;;3.93;;
10481;SDS011;5288;42.334;23.876;2023-04-24T08:41:41;12.50;;;5.50;;
10481;SDS011;5288;42.334;23.876;2023-04-24T08:44:10;5.47;;;4.27;;
10481;SDS011;5288;42.334;23.876;2023-04-24T08:46:37;5.57;;;3.77;;
10481;SDS011;5288;42.334;23.876;2023-04-24T08:49:07;6.50;;;3.83;;
10481;SDS011;5288;42.334;23.876;2023-04-24T08:51:34;7.30;;;4.20;;
10481;SDS011;5288;42.334;23.876;2023-04-24T08:54:03;15.77;;;5.20;;
10481;SDS011;5288;42.334;23.876;2023-04-24T08:56:32;8.33;;;4.43;;
10481;SDS011;5288;42.334;23.876;2023-04-24T08:59:03;5.90;;;4.10;;
10481;SDS011;5288;42.334;23.876;2023-04-24T09:01:30;22.57;;;5.37;;
10481;SDS011;5288;42.334;23.876;2023-04-24T09:04:00;5.63;;;3.87;;
10481;SDS011;5288;42.334;23.876;2023-04-24T09:06:31;7.77;;;4.90;;
10481;SDS011;5288;42.334;23.876;2023-04-24T09:08:59;7.60;;;4.10;;
10481;SDS011;5288;42.334;23.876;2023-04-24T09:11:29;6.87;;;3.70;;
10481;SDS011;5288;42.334;23.876;2023-04-24T09:13:57;7.40;;;4.67;;
10481;SDS011;5288;42.334;23.876;2023-04-24T09:16:24;12.07;;;5.10;;
10481;SDS011;5288;42.334;23.876;2023-04-24T09:18:52;4.87;;;3.77;;
10481;SDS011;5288;42.334;23.876;2023-04-24T09:21:20;5.37;;;3.90;;
10481;SDS011;5288;42.334;23.876;2023-04-24T09:23:58;4.00;;;3.60;;
10481;SDS011;5288;42.334;23.876;2023-04-24T09:26:29;5.37;;;3.73;;
10481;SDS011;5288;42.334;23.876;2023-04-24T09:28:58;3.90;;;3.50;;
10481;SDS011;5288;42.334;23.876;2023-04-24T09:31:26;7.03;;;4.17;;
10481;SDS011;5288;42.334;23.876;2023-04-24T09:33:55;9.60;;;5.13;;
10481;SDS011;5288;42.334;23.876;2023-04-24T09:36:27;8.07;;;4.00;;
10481;SDS011;5288;42.334;23.876;2023-04-24T09:38:58;6.30;;;4.77;;
10481;SDS011;5288;42.334;23.876;2023-04-24T09:41:26;6.17;;;4.20;;
10481;SDS011;5288;42.334;23.876;2023-04-24T09:43:54;7.40;;;4.20;;
10481;SDS011;5288;42.334;23.876;2023-04-24T09:46:28;8.40;;;4.13;;
10481;SDS011;5288;42.334;23.876;2023-04-24T09:48:56;9.40;;;4.10;;
10481;SDS011;5288;42.334;23.876;2023-04-24T09:51:33;5.77;;;4.07;;
10481;SDS011;5288;42.334;23.876;2023-04-24T09:54:03;4.50;;;4.10;;
10481;SDS011;5288;42.334;23.876;2023-04-24T09:56:34;9.33;;;3.93;;
10481;SDS011;5288;42.334;23.876;2023-04-24T09:59:04;6.50;;;3.63;;
10481;SDS011;5288;42.334;23.876;2023-04-24T10:01:32;4.40;;;3.80;;
10481;SDS011;5288;42.334;23.876;2023-04-24T10:04:00;9.00;;;4.43;;
10481;SDS011;5288;42.334;23.876;2023-04-24T10:06:30;7.93;;;3.87;;
10481;SDS011;5288;42.334;23.876;2023-04-24T10:08:59;4.87;;;3.83;;
10481;SDS011;5288;42.334;23.876;2023-04-24T10:11:28;6.70;;;4.20;;
10481;SDS011;5288;42.334;23.876;2023-04-24T10:13:56;4.10;;;3.70;;
10481;SDS011;5288;42.334;23.876;2023-04-24T10:16:23;6.20;;;3.80;;
10481;SDS011;5288;42.334;23.876;2023-04-24T10:18:52;5.13;;;3.90;;
10481;SDS011;5288;42.334;23.876;2023-04-24T10:21:19;8.17;;;4.30;;
10481;SDS011;5288;42.334;23.876;2023-04-24T10:23:46;4.33;;;3.90;;
10481;SDS011;5288;42.334;23.876;2023-04-24T10:26:15;7.53;;;4.20;;
10481;SDS011;5288;42.334;23.876;2023-04-24T10:28:46;5.43;;;3.90;;
10481;SDS011;5288;42.334;23.876;2023-04-24T10:31:14;6.17;;;4.03;;
10481;SDS011;5288;42.334;23.876;2023-04-24T10:33:42;10.10;;;4.50;;
10481;SDS011;5288;42.334;23.876;2023-04-24T10:36:09;5.13;;;3.70;;
10481;SDS011;5288;42.334;23.876;2023-04-24T10:38:38;9.23;;;4.07;;
10481;SDS011;5288;42.334;23.876;2023-04-24T10:41:07;5.73;;;4.07;;
10481;SDS011;5288;42.334;23.876;2023-04-24T10:43:39;6.17;;;4.10;;
10481;SDS011;5288;42.334;23.876;2023-04-24T10:46:08;5.47;;;4.33;;
10481;SDS011;5288;42.334;23.876;2023-04-24T10:48:41;6.90;;;4.20;;
10481;SDS011;5288;42.334;23.876;2023-04-24T10:51:11;3.67;;;3.37;;
10481;SDS011;5288;42.334;23.876;2023-04-24T10:53:39;4.40;;;3.90;;
10481;SDS011;5288;42.334;23.876;2023-04-24T10:56:06;11.37;;;4.13;;
10481;SDS011;5288;42.334;23.876;2023-04-24T10:58:36;10.57;;;4.43;;
10481;SDS011;5288;42.334;23.876;2023-04-24T11:01:05;5.90;;;4.10;;
10481;SDS011;5288;42.334;23.876;2023-04-24T11:03:34;8.07;;;4.20;;
10481;SDS011;5288;42.334;23.876;2023-04-24T11:06:03;4.43;;;4.03;;
10481;SDS011;5288;42.334;23.876;2023-04-24T11:08:32;5.10;;;3.73;;
10481;SDS011;5288;42.334;23.876;2023-04-24T11:11:06;6.27;;;4.77;;
10481;SDS011;5288;42.334;23.876;2023-04-24T11:16:30;4.27;;;3.70;;
10481;SDS011;5288;42.334;23.876;2023-04-24T11:19:02;5.13;;;3.93;;
10481;SDS011;5288;42.334;23.876;2023-04-24T11:21:40;4.03;;;3.30;;
10481;SDS011;5288;42.334;23.876;2023-04-24T11:24:25;6.63;;;4.30;;
10481;SDS011;5288;42.334;23.876;2023-04-24T11:26:54;4.70;;;4.30;;
10481;SDS011;5288;42.334;23.876;2023-04-24T11:29:22;5.20;;;3.87;;
10481;SDS011;5288;42.334;23.876;2023-04-24T11:31:50;11.63;;;3.90;;
10481;SDS011;5288;42.334;23.876;2023-04-24T11:34:18;4.27;;;3.87;;
10481;SDS011;5288;42.334;23.876;2023-04-24T11:36:45;6.50;;;4.53;;
10481;SDS011;5288;42.334;23.876;2023-04-24T11:39:13;7.73;;;3.73;;
10481;SDS011;5288;42.334;23.876;2023-04-24T11:41:40;7.00;;;4.40;;
10481;SDS011;5288;42.334;23.876;2023-04-24T11:44:08;6.70;;;4.40;;
10481;SDS011;5288;42.334;23.876;2023-04-24T11:46:36;6.17;;;4.00;;
10481;SDS011;5288;42.334;23.876;2023-04-24T11:49:06;23.37;;;6.33;;
10481;SDS011;5288;42.334;23.876;2023-04-24T11:51:33;5.13;;;3.60;;
10481;SDS011;5288;42.334;23.876;2023-04-24T11:54:01;8.50;;;4.10;;
10481;SDS011;5288;42.334;23.876;2023-04-24T11:56:28;7.97;;;3.80;;
10481;SDS011;5288;42.334;23.876;2023-04-24T11:58:55;5.20;;;4.43;;
10481;SDS011;5288;42.334;23.876;2023-04-24T12:01:22;6.00;;;3.90;;
10481;SDS011;5288;42.334;23.876;2023-04-24T12:03:49;10.23;;;4.47;;
10481;SDS011;5288;42.334;23.876;2023-04-24T12:06:18;4.10;;;3.70;;
10481;SDS011;5288;42.334;23.876;2023-04-24T12:08:46;8.27;;;3.97;;
10481;SDS011;5288;42.334;23.876;2023-04-24T12:11:14;7.37;;;4.40;;
10481;SDS011;5288;42.334;23.876;2023-04-24T12:13:42;5.80;;;4.20;;
10481;SDS011;5288;42.334;23.876;2023-04-24T12:16:10;9.00;;;4.30;;
10481;SDS011;5288;42.334;23.876;2023-04-24T12:18:41;11.10;;;5.37;;
10481;SDS011;5288;42.334;23.876;2023-04-24T12:21:16;5.97;;;4.43;;
10481;SDS011;5288;42.334;23.876;2023-04-24T12:23:45;5.03;;;4.27;;
10481;SDS011;5288;42.334;23.876;2023-04-24T12:26:15;6.33;;;5.17;;
10481;SDS011;5288;42.334;23.876;2023-04-24T12:28:45;5.17;;;4.10;;
10481;SDS011;5288;42.334;23.876;2023-04-24T12:31:14;9.00;;;4.90;;
10481;SDS011;5288;42.334;23.876;2023-04-24T12:33:41;8.80;;;5.10;;
10481;SDS011;5288;42.334;23.876;2023-04-24T12:36:09;9.60;;;4.23;;
10481;SDS011;5288;42.334;23.876;2023-04-24T12:38:38;8.13;;;4.60;;
10481;SDS011;5288;42.334;23.876;2023-04-24T12:41:11;6.37;;;5.77;;
10481;SDS011;5288;42.334;23.876;2023-04-24T12:43:50;6.80;;;5.03;;
10481;SDS011;5288;42.334;23.876;2023-04-24T12:46:18;5.93;;;4.83;;
10481;SDS011;5288;42.334;23.876;2023-04-24T12:48:45;6.53;;;5.77;;
10481;SDS011;5288;42.334;23.876;2023-04-24T12:51:12;7.10;;;6.10;;
10481;SDS011;5288;42.334;23.876;2023-04-24T12:53:39;10.27;;;5.57;;
10481;SDS011;5288;42.334;23.876;2023-04-24T12:56:06;5.43;;;4.70;;
10481;SDS011;5288;42.334;23.876;2023-04-24T12:58:34;8.93;;;4.53;;
10481;SDS011;5288;42.334;23.876;2023-04-24T13:01:02;5.80;;;5.30;;
10481;SDS011;5288;42.334;23.876;2023-04-24T13:03:29;6.77;;;4.70;;
10481;SDS011;5288;42.334;23.876;2023-04-24T13:05:56;6.47;;;4.80;;
10481;SDS011;5288;42.334;23.876;2023-04-24T13:08:23;6.20;;;4.57;;
10481;SDS011;5288;42.334;23.876;2023-04-24T13:10:50;6.47;;;5.87;;
10481;SDS011;5288;42.334;23.876;2023-04-24T13:13:17;6.03;;;4.93;;
10481;SDS011;5288;42.334;23.876;2023-04-24T13:15:45;10.93;;;6.40;;
10481;SDS011;5288;42.334;23.876;2023-04-24T13:18:12;8.77;;;6.80;;
10481;SDS011;5288;42.334;23.876;2023-04-24T13:20:39;8.53;;;6.17;;
10481;SDS011;5288;42.334;23.876;2023-04-24T13:23:06;21.77;;;9.43;;
10481;SDS011;5288;42.334;23.876;2023-04-24T13:25:35;10.57;;;6.17;;
10481;SDS011;5288;42.334;23.876;2023-04-24T13:28:04;8.23;;;5.43;;
10481;SDS011;5288;42.334;23.876;2023-04-24T13:30:31;8.03;;;6.07;;
10481;SDS011;5288;42.334;23.876;2023-04-24T13:32:59;6.40;;;5.53;;
10481;SDS011;5288;42.334;23.876;2023-04-24T13:35:27;6.60;;;5.87;;
10481;SDS011;5288;42.334;23.876;2023-04-24T13:37:54;7.83;;;5.70;;
10481;SDS011;5288;42.334;23.876;2023-04-24T13:40:21;16.03;;;10.03;;
10481;SDS011;5288;42.334;23.876;2023-04-24T13:42:48;11.20;;;9.73;;
10481;SDS011;5288;42.334;23.876;2023-04-24T13:45:15;7.60;;;6.80;;
10481;SDS011;5288;42.334;23.876;2023-04-24T13:47:42;13.43;;;7.47;;
10481;SDS011;5288;42.334;23.876;2023-04-24T13:50:11;10.27;;;7.70;;
10481;SDS011;5288;42.334;23.876;2023-04-24T13:52:38;13.70;;;9.00;;
10481;SDS011;5288;42.334;23.876;2023-04-24T13:55:05;9.80;;;8.10;;
10481;SDS011;5288;42.334;23.876;2023-04-24T13:57:33;9.43;;;7.43;;
10481;SDS011;5288;42.334;23.876;2023-04-24T14:00:00;9.43;;;6.80;;
10481;SDS011;5288;42.334;23.876;2023-04-24T14:02:29;11.70;;;7.07;;
10481;SDS011;5288;42.334;23.876;2023-04-24T14:04:56;13.80;;;10.60;;
10481;SDS011;5288;42.334;23.876;2023-04-24T14:07:24;13.67;;;9.00;;
10481;SDS011;5288;42.334;23.876;2023-04-24T14:09:51;13.67;;;9.93;;
10481;SDS011;5288;42.334;23.876;2023-04-24T14:12:18;11.87;;;8.77;;
10481;SDS011;5288;42.334;23.876;2023-04-24T14:14:46;28.40;;;21.93;;
10481;SDS011;5288;42.334;23.876;2023-04-24T14:17:13;10.13;;;9.13;;
10481;SDS011;5288;42.334;23.876;2023-04-24T14:19:40;9.57;;;8.67;;
10481;SDS011;5288;42.334;23.876;2023-04-24T14:22:07;32.97;;;12.30;;
10481;SDS011;5288;42.334;23.876;2023-04-24T14:24:36;14.90;;;9.40;;
10481;SDS011;5288;42.334;23.876;2023-04-24T14:27:03;13.90;;;8.80;;
10481;SDS011;5288;42.334;23.876;2023-04-24T14:29:30;10.83;;;8.37;;
10481;SDS011;5288;42.334;23.876;2023-04-24T14:31:57;11.20;;;9.87;;
10481;SDS011;5288;42.334;23.876;2023-04-24T14:34:24;11.90;;;8.70;;
10481;SDS011;5288;42.334;23.876;2023-04-24T14:36:51;12.73;;;8.33;;
10481;SDS011;5288;42.334;23.876;2023-04-24T14:39:19;12.73;;;9.23;;
10481;SDS011;5288;42.334;23.876;2023-04-24T14:41:47;13.07;;;11.60;;
10481;SDS011;5288;42.334;23.876;2023-04-24T14:44:14;11.13;;;6.80;;
10481;SDS011;5288;42.334;23.876;2023-04-24T14:46:41;11.87;;;8.07;;
10481;SDS011;5288;42.334;23.876;2023-04-24T14:49:08;12.17;;;7.37;;
10481;SDS011;5288;42.334;23.876;2023-04-24T14:51:37;12.87;;;7.57;;
10481;SDS011;5288;42.334;23.876;2023-04-24T14:54:04;8.20;;;7.40;;
10481;SDS011;5288;42.334;23.876;2023-04-24T14:56:31;14.73;;;11.70;;
10481;SDS011;5288;42.334;23.876;2023-04-24T14:59:00;10.87;;;7.53;;
10481;SDS011;5288;42.334;23.876;2023-04-24T15:01:27;8.07;;;7.27;;
10481;SDS011;5288;42.334;23.876;2023-04-24T15:03:54;12.00;;;9.20;;
10481;SDS011;5288;42.334;23.876;2023-04-24T15:06:21;8.23;;;7.10;;
10481;SDS011;5288;42.334;23.876;2023-04-24T15:08:48;10.37;;;7.07;;
10481;SDS011;5288;42.334;23.876;2023-04-24T15:11:15;7.03;;;6.40;;
10481;SDS011;5288;42.334;23.876;2023-04-24T15:13:42;8.00;;;7.20;;
10481;SDS011;5288;42.334;23.876;2023-04-24T15:16:11;9.10;;;6.40;;
10481;SDS011;5288;42.334;23.876;2023-04-24T15:18:38;8.27;;;7.00;;
10481;SDS011;5288;42.334;23.876;2023-04-24T15:21:05;6.73;;;6.13;;